sensor_id;sensor_type;location;lat;lon;timestamp;temperature;humidity
10678;DHT22;5387;48.722;9.110;2023-06-19T00:01:40;22.70;79.80
10678;DHT22;5387;48.722;9.110;2023-06-19T00:04:06;22.70;79.90
10678;DHT22;5387;48.722;9.110;2023-06-19T00:06:33;22.70;80.00
10678;DHT22;5387;48.722;9.110;2023-06-19T00:09:01;22.70;79.90
10678;DHT22;5387;48.722;9.110;2023-06-19T00:11:28;22.70;79.90
10678;DHT22;5387;48.722;9.110;2023-06-19T00:13:55;22.70;79.90
10678;DHT22;5387;48.722;9.110;2023-06-19T00:16:22;22.70;79.90
10678;DHT22;5387;48.722;9.110;2023-06-19T00:18:50;22.70;80.50
10678;DHT22;5387;48.722;9.110;2023-06-19T00:21:21;22.70;80.00
10678;DHT22;5387;48.722;9.110;2023-06-19T00:23:49;22.70;79.90
10678;DHT22;5387;48.722;9.110;2023-06-19T00:26:17;22.60;80.10
10678;DHT22;5387;48.722;9.110;2023-06-19T00:28:44;22.60;80.30
10678;DHT22;5387;48.722;9.110;2023-06-19T00:31:14;22.60;80.50
10678;DHT22;5387;48.722;9.110;2023-06-19T00:33:41;22.50;80.80
10678;DHT22;5387;48.722;9.110;2023-06-19T00:36:09;22.40;81.00
10678;DHT22;5387;48.722;9.110;2023-06-19T00:38:37;22.30;81.40
10678;DHT22;5387;48.722;9.110;2023-06-19T00:41:04;22.30;81.50
10678;DHT22;5387;48.722;9.110;2023-06-19T00:43:33;22.20;81.60
10678;DHT22;5387;48.722;9.110;2023-06-19T00:46:01;22.20;81.80
10678;DHT22;5387;48.722;9.110;2023-06-19T00:48:29;22.20;82.00
10678;DHT22;5387;48.722;9.110;2023-06-19T00:50:57;22.10;82.00
10678;DHT22;5387;48.722;9.110;2023-06-19T00:53:24;22.10;82.20
10678;DHT22;5387;48.722;9.110;2023-06-19T00:55:53;22.00;82.70
10678;DHT22;5387;48.722;9.110;2023-06-19T00:58:21;22.00;82.90
10678;DHT22;5387;48.722;9.110;2023-06-19T01:00:50;21.90;83.90
10678;DHT22;5387;48.722;9.110;2023-06-19T01:03:17;21.90;84.10
10678;DHT22;5387;48.722;9.110;2023-06-19T01:05:47;21.80;84.20
10678;DHT22;5387;48.722;9.110;2023-06-19T01:08:29;21.70;84.70
10678;DHT22;5387;48.722;9.110;2023-06-19T01:11:03;21.80;84.90
10678;DHT22;5387;48.722;9.110;2023-06-19T01:13:34;21.80;85.10
10678;DHT22;5387;48.722;9.110;2023-06-19T01:16:04;21.90;84.20
10678;DHT22;5387;48.722;9.110;2023-06-19T01:18:32;22.00;83.30
10678;DHT22;5387;48.722;9.110;2023-06-19T01:21:09;22.10;82.10
10678;DHT22;5387;48.722;9.110;2023-06-19T01:23:37;22.20;81.90
10678;DHT22;5387;48.722;9.110;2023-06-19T01:26:07;22.20;82.30
10678;DHT22;5387;48.722;9.110;2023-06-19T01:28:34;22.20;83.00
10678;DHT22;5387;48.722;9.110;2023-06-19T01:31:03;22.10;83.80
10678;DHT22;5387;48.722;9.110;2023-06-19T01:33:33;22.10;84.30
10678;DHT22;5387;48.722;9.110;2023-06-19T01:36:02;22.00;84.80
10678;DHT22;5387;48.722;9.110;2023-06-19T01:38:31;21.90;85.10
10678;DHT22;5387;48.722;9.110;2023-06-19T01:41:00;21.80;85.40
10678;DHT22;5387;48.722;9.110;2023-06-19T01:43:27;21.80;85.80
10678;DHT22;5387;48.722;9.110;2023-06-19T01:45:55;21.70;86.00
10678;DHT22;5387;48.722;9.110;2023-06-19T01:48:22;21.60;86.20
10678;DHT22;5387;48.722;9.110;2023-06-19T01:50:50;21.60;86.90
10678;DHT22;5387;48.722;9.110;2023-06-19T01:53:17;21.60;87.40
10678;DHT22;5387;48.722;9.110;2023-06-19T01:55:44;21.60;87.80
10678;DHT22;5387;48.722;9.110;2023-06-19T01:58:12;21.50;88.60
10678;DHT22;5387;48.722;9.110;2023-06-19T02:00:39;21.50;89.00
10678;DHT22;5387;48.722;9.110;2023-06-19T02:03:06;21.50;89.70
10678;DHT22;5387;48.722;9.110;2023-06-19T02:05:33;21.50;90.00
10678;DHT22;5387;48.722;9.110;2023-06-19T02:08:04;21.50;90.40
10678;DHT22;5387;48.722;9.110;2023-06-19T02:10:31;21.50;90.60
10678;DHT22;5387;48.722;9.110;2023-06-19T02:12:58;21.50;90.80
10678;DHT22;5387;48.722;9.110;2023-06-19T02:15:26;21.50;91.10
10678;DHT22;5387;48.722;9.110;2023-06-19T02:17:54;21.50;91.30
10678;DHT22;5387;48.722;9.110;2023-06-19T02:20:22;21.50;91.50
10678;DHT22;5387;48.722;9.110;2023-06-19T02:22:50;21.50;91.60
10678;DHT22;5387;48.722;9.110;2023-06-19T02:25:17;21.60;91.70
10678;DHT22;5387;48.722;9.110;2023-06-19T02:27:45;21.50;91.80
10678;DHT22;5387;48.722;9.110;2023-06-19T02:30:12;21.60;91.80
10678;DHT22;5387;48.722;9.110;2023-06-19T02:32:40;21.50;92.00
10678;DHT22;5387;48.722;9.110;2023-06-19T02:35:09;21.50;92.10
10678;DHT22;5387;48.722;9.110;2023-06-19T02:37:36;21.50;92.40
10678;DHT22;5387;48.722;9.110;2023-06-19T02:40:03;21.50;92.60
10678;DHT22;5387;48.722;9.110;2023-06-19T02:42:31;21.40;92.70
10678;DHT22;5387;48.722;9.110;2023-06-19T02:44:58;21.40;92.90
10678;DHT22;5387;48.722;9.110;2023-06-19T02:47:29;21.30;93.10
10678;DHT22;5387;48.722;9.110;2023-06-19T02:49:57;21.30;93.30
10678;DHT22;5387;48.722;9.110;2023-06-19T02:52:24;21.30;93.50
10678;DHT22;5387;48.722;9.110;2023-06-19T02:54:51;21.20;93.70
10678;DHT22;5387;48.722;9.110;2023-06-19T02:57:18;21.10;93.80
10678;DHT22;5387;48.722;9.110;2023-06-19T02:59:45;21.10;94.10
10678;DHT22;5387;48.722;9.110;2023-06-19T03:02:12;21.00;94.20
10678;DHT22;5387;48.722;9.110;2023-06-19T03:04:39;21.10;94.50
10678;DHT22;5387;48.722;9.110;2023-06-19T03:07:08;21.00;94.60
10678;DHT22;5387;48.722;9.110;2023-06-19T03:09:34;21.00;94.80
10678;DHT22;5387;48.722;9.110;2023-06-19T03:12:01;21.00;94.90
10678;DHT22;5387;48.722;9.110;2023-06-19T03:14:28;20.90;95.10
10678;DHT22;5387;48.722;9.110;2023-06-19T03:16:55;20.90;95.30
10678;DHT22;5387;48.722;9.110;2023-06-19T03:19:21;20.80;95.40
10678;DHT22;5387;48.722;9.110;2023-06-19T03:21:48;20.80;95.70
10678;DHT22;5387;48.722;9.110;2023-06-19T03:24:16;20.80;95.90
10678;DHT22;5387;48.722;9.110;2023-06-19T03:26:43;20.80;95.90
10678;DHT22;5387;48.722;9.110;2023-06-19T03:29:10;20.70;95.90
10678;DHT22;5387;48.722;9.110;2023-06-19T03:31:36;20.80;96.10
10678;DHT22;5387;48.722;9.110;2023-06-19T03:34:05;20.80;96.20
10678;DHT22;5387;48.722;9.110;2023-06-19T03:36:31;20.80;96.40
10678;DHT22;5387;48.722;9.110;2023-06-19T03:38:58;20.80;96.50
10678;DHT22;5387;48.722;9.110;2023-06-19T03:41:26;20.80;96.70
10678;DHT22;5387;48.722;9.110;2023-06-19T03:43:53;20.80;96.80
10678;DHT22;5387;48.722;9.110;2023-06-19T03:46:20;20.50;97.10
10678;DHT22;5387;48.722;9.110;2023-06-19T03:48:47;20.50;98.10
10678;DHT22;5387;48.722;9.110;2023-06-19T03:51:14;20.40;98.60
10678;DHT22;5387;48.722;9.110;2023-06-19T03:53:41;20.40;98.90
10678;DHT22;5387;48.722;9.110;2023-06-19T03:56:08;20.30;99.10
10678;DHT22;5387;48.722;9.110;2023-06-19T03:58:36;20.30;99.80
10678;DHT22;5387;48.722;9.110;2023-06-19T04:01:03;20.20;99.90
10678;DHT22;5387;48.722;9.110;2023-06-19T04:03:31;20.10;99.90
10678;DHT22;5387;48.722;9.110;2023-06-19T04:05:57;19.80;99.90
10678;DHT22;5387;48.722;9.110;2023-06-19T04:08:24;19.40;99.90
10678;DHT22;5387;48.722;9.110;2023-06-19T04:10:51;19.40;99.90
10678;DHT22;5387;48.722;9.110;2023-06-19T04:13:18;19.30;99.90
10678;DHT22;5387;48.722;9.110;2023-06-19T04:15:46;19.30;99.90
10678;DHT22;5387;48.722;9.110;2023-06-19T04:18:13;19.20;99.90
10678;DHT22;5387;48.722;9.110;2023-06-19T04:20:40;19.10;99.90
10678;DHT22;5387;48.722;9.110;2023-06-19T04:23:07;19.00;99.90
10678;DHT22;5387;48.722;9.110;2023-06-19T04:25:34;19.00;99.90
10678;DHT22;5387;48.722;9.110;2023-06-19T04:28:00;19.20;99.90
10678;DHT22;5387;48.722;9.110;2023-06-19T04:30:28;19.10;99.90
10678;DHT22;5387;48.722;9.110;2023-06-19T04:32:57;19.10;99.90
10678;DHT22;5387;48.722;9.110;2023-06-19T04:35:23;19.10;99.90
10678;DHT22;5387;48.722;9.110;2023-06-19T04:37:50;19.10;99.90
10678;DHT22;5387;48.722;9.110;2023-06-19T04:40:17;19.20;99.90
10678;DHT22;5387;48.722;9.110;2023-06-19T04:42:44;19.20;99.90
10678;DHT22;5387;48.722;9.110;2023-06-19T04:45:11;19.10;99.90
10678;DHT22;5387;48.722;9.110;2023-06-19T04:47:37;19.30;99.90
10678;DHT22;5387;48.722;9.110;2023-06-19T04:50:07;19.30;99.90
10678;DHT22;5387;48.722;9.110;2023-06-19T04:52:34;19.50;99.90
10678;DHT22;5387;48.722;9.110;2023-06-19T04:55:01;19.50;99.90
10678;DHT22;5387;48.722;9.110;2023-06-19T04:57:27;19.60;99.90
10678;DHT22;5387;48.722;9.110;2023-06-19T04:59:54;19.70;99.90
10678;DHT22;5387;48.722;9.110;2023-06-19T05:02:21;19.80;99.90
10678;DHT22;5387;48.722;9.110;2023-06-19T05:04:49;19.60;99.90
10678;DHT22;5387;48.722;9.110;2023-06-19T05:07:17;19.70;99.90
10678;DHT22;5387;48.722;9.110;2023-06-19T05:09:44;19.50;99.90
10678;DHT22;5387;48.722;9.110;2023-06-19T05:12:11;19.60;99.90
10678;DHT22;5387;48.722;9.110;2023-06-19T05:14:38;19.60;99.90
10678;DHT22;5387;48.722;9.110;2023-06-19T05:17:05;19.60;99.90
10678;DHT22;5387;48.722;9.110;2023-06-19T05:19:32;19.60;99.90
10678;DHT22;5387;48.722;9.110;2023-06-19T05:21:59;19.70;99.90
10678;DHT22;5387;48.722;9.110;2023-06-19T05:24:27;19.80;99.90
10678;DHT22;5387;48.722;9.110;2023-06-19T05:26:54;19.70;99.90
10678;DHT22;5387;48.722;9.110;2023-06-19T05:29:21;19.70;99.90
10678;DHT22;5387;48.722;9.110;2023-06-19T05:31:47;19.80;99.90
10678;DHT22;5387;48.722;9.110;2023-06-19T05:34:14;19.80;99.90
10678;DHT22;5387;48.722;9.110;2023-06-19T05:36:41;19.90;99.90
10678;DHT22;5387;48.722;9.110;2023-06-19T05:39:12;20.20;99.90
10678;DHT22;5387;48.722;9.110;2023-06-19T05:41:41;20.40;99.90
10678;DHT22;5387;48.722;9.110;2023-06-19T05:44:11;20.70;99.90
10678;DHT22;5387;48.722;9.110;2023-06-19T05:46:40;20.70;99.90
10678;DHT22;5387;48.722;9.110;2023-06-19T05:49:07;21.00;99.90
10678;DHT22;5387;48.722;9.110;2023-06-19T05:51:34;21.30;99.90
10678;DHT22;5387;48.722;9.110;2023-06-19T05:54:01;21.50;99.90
10678;DHT22;5387;48.722;9.110;2023-06-19T05:56:29;21.40;99.90
10678;DHT22;5387;48.722;9.110;2023-06-19T05:58:57;21.30;99.90
10678;DHT22;5387;48.722;9.110;2023-06-19T06:01:24;21.50;99.90
10678;DHT22;5387;48.722;9.110;2023-06-19T06:03:53;21.50;99.90
10678;DHT22;5387;48.722;9.110;2023-06-19T06:06:20;21.60;99.90
10678;DHT22;5387;48.722;9.110;2023-06-19T06:08:47;21.60;99.90
10678;DHT22;5387;48.722;9.110;2023-06-19T06:11:14;21.70;99.90
10678;DHT22;5387;48.722;9.110;2023-06-19T06:13:41;21.60;99.90
10678;DHT22;5387;48.722;9.110;2023-06-19T06:16:09;21.70;99.90
10678;DHT22;5387;48.722;9.110;2023-06-19T06:18:36;21.70;99.90
10678;DHT22;5387;48.722;9.110;2023-06-19T06:21:03;21.90;99.90
10678;DHT22;5387;48.722;9.110;2023-06-19T06:23:30;22.10;99.90
10678;DHT22;5387;48.722;9.110;2023-06-19T06:25:57;22.00;99.90
10678;DHT22;5387;48.722;9.110;2023-06-19T06:28:27;22.20;99.90
10678;DHT22;5387;48.722;9.110;2023-06-19T06:30:54;22.20;99.90
10678;DHT22;5387;48.722;9.110;2023-06-19T06:33:22;22.40;99.90
10678;DHT22;5387;48.722;9.110;2023-06-19T06:35:49;22.50;99.90
10678;DHT22;5387;48.722;9.110;2023-06-19T06:38:17;22.60;99.90
10678;DHT22;5387;48.722;9.110;2023-06-19T06:40:43;22.70;99.90
10678;DHT22;5387;48.722;9.110;2023-06-19T06:43:10;22.90;99.90
10678;DHT22;5387;48.722;9.110;2023-06-19T06:45:37;22.90;99.90
10678;DHT22;5387;48.722;9.110;2023-06-19T06:48:04;23.00;99.90
10678;DHT22;5387;48.722;9.110;2023-06-19T06:50:33;22.80;99.90
10678;DHT22;5387;48.722;9.110;2023-06-19T06:53:01;22.40;99.90
10678;DHT22;5387;48.722;9.110;2023-06-19T06:55:28;22.70;99.90
10678;DHT22;5387;48.722;9.110;2023-06-19T06:57:55;22.80;99.90
10678;DHT22;5387;48.722;9.110;2023-06-19T07:00:22;22.80;99.90
10678;DHT22;5387;48.722;9.110;2023-06-19T07:02:48;23.00;99.90
10678;DHT22;5387;48.722;9.110;2023-06-19T07:05:16;22.90;99.90
10678;DHT22;5387;48.722;9.110;2023-06-19T07:07:44;22.90;99.90
10678;DHT22;5387;48.722;9.110;2023-06-19T07:10:11;23.00;99.90
10678;DHT22;5387;48.722;9.110;2023-06-19T07:12:45;23.10;99.90
10678;DHT22;5387;48.722;9.110;2023-06-19T07:15:12;23.30;99.90
10678;DHT22;5387;48.722;9.110;2023-06-19T07:17:39;23.20;99.90
10678;DHT22;5387;48.722;9.110;2023-06-19T07:20:06;23.20;99.90
10678;DHT22;5387;48.722;9.110;2023-06-19T07:22:33;23.50;99.90
10678;DHT22;5387;48.722;9.110;2023-06-19T07:25:02;23.80;99.90
10678;DHT22;5387;48.722;9.110;2023-06-19T07:27:29;23.90;99.90
10678;DHT22;5387;48.722;9.110;2023-06-19T07:29:56;23.90;99.90
10678;DHT22;5387;48.722;9.110;2023-06-19T07:32:22;23.70;99.90
10678;DHT22;5387;48.722;9.110;2023-06-19T07:34:49;23.90;99.90
10678;DHT22;5387;48.722;9.110;2023-06-19T07:37:16;24.00;99.90
10678;DHT22;5387;48.722;9.110;2023-06-19T07:39:44;23.90;99.90
10678;DHT22;5387;48.722;9.110;2023-06-19T07:42:13;24.30;99.90
10678;DHT22;5387;48.722;9.110;2023-06-19T07:44:40;24.60;99.90
10678;DHT22;5387;48.722;9.110;2023-06-19T07:47:07;24.50;99.90
10678;DHT22;5387;48.722;9.110;2023-06-19T07:49:34;24.50;99.90
10678;DHT22;5387;48.722;9.110;2023-06-19T07:52:02;24.30;99.90
10678;DHT22;5387;48.722;9.110;2023-06-19T07:54:28;24.30;99.90
10678;DHT22;5387;48.722;9.110;2023-06-19T07:56:55;24.40;99.90
10678;DHT22;5387;48.722;9.110;2023-06-19T07:59:23;24.50;99.90
10678;DHT22;5387;48.722;9.110;2023-06-19T08:01:50;24.30;99.90
10678;DHT22;5387;48.722;9.110;2023-06-19T08:04:17;24.00;99.90
10678;DHT22;5387;48.722;9.110;2023-06-19T08:06:44;23.60;99.90
10678;DHT22;5387;48.722;9.110;2023-06-19T08:09:10;23.70;99.90
10678;DHT22;5387;48.722;9.110;2023-06-19T08:11:37;23.80;99.90
10678;DHT22;5387;48.722;9.110;2023-06-19T08:14:04;23.70;99.90
10678;DHT22;5387;48.722;9.110;2023-06-19T08:16:32;23.70;99.90
10678;DHT22;5387;48.722;9.110;2023-06-19T08:18:59;23.50;99.90
10678;DHT22;5387;48.722;9.110;2023-06-19T08:21:26;23.70;99.90
10678;DHT22;5387;48.722;9.110;2023-06-19T08:23:52;23.70;99.90
10678;DHT22;5387;48.722;9.110;2023-06-19T08:26:19;24.00;99.90
10678;DHT22;5387;48.722;9.110;2023-06-19T08:28:46;24.20;99.90
10678;DHT22;5387;48.722;9.110;2023-06-19T08:31:13;24.20;99.90
10678;DHT22;5387;48.722;9.110;2023-06-19T08:33:41;24.10;99.90
10678;DHT22;5387;48.722;9.110;2023-06-19T08:36:08;24.40;99.90
10678;DHT22;5387;48.722;9.110;2023-06-19T08:38:35;24.50;99.90
10678;DHT22;5387;48.722;9.110;2023-06-19T08:41:01;24.50;99.90
10678;DHT22;5387;48.722;9.110;2023-06-19T08:43:28;24.30;99.90
10678;DHT22;5387;48.722;9.110;2023-06-19T08:46:06;24.20;99.90
10678;DHT22;5387;48.722;9.110;2023-06-19T08:48:34;24.20;99.90
10678;DHT22;5387;48.722;9.110;2023-06-19T08:51:02;24.40;99.90
10678;DHT22;5387;48.722;9.110;2023-06-19T08:53:33;24.70;99.90
10678;DHT22;5387;48.722;9.110;2023-06-19T08:56:00;24.70;99.90
10678;DHT22;5387;48.722;9.110;2023-06-19T08:58:27;24.90;99.90
10678;DHT22;5387;48.722;9.110;2023-06-19T09:00:54;25.00;99.90
10678;DHT22;5387;48.722;9.110;2023-06-19T09:03:21;25.00;99.90
10678;DHT22;5387;48.722;9.110;2023-06-19T09:05:48;25.10;99.90
10678;DHT22;5387;48.722;9.110;2023-06-19T09:08:18;25.40;99.90
10678;DHT22;5387;48.722;9.110;2023-06-19T09:10:57;25.70;99.90
10678;DHT22;5387;48.722;9.110;2023-06-19T09:13:24;25.80;99.90
10678;DHT22;5387;48.722;9.110;2023-06-19T09:15:58;26.00;99.90
10678;DHT22;5387;48.722;9.110;2023-06-19T09:18:27;26.00;99.90
10678;DHT22;5387;48.722;9.110;2023-06-19T09:20:55;25.90;99.40
10678;DHT22;5387;48.722;9.110;2023-06-19T09:23:24;26.00;99.30
10678;DHT22;5387;48.722;9.110;2023-06-19T09:25:52;26.00;99.90
10678;DHT22;5387;48.722;9.110;2023-06-19T09:28:21;25.90;99.90
10678;DHT22;5387;48.722;9.110;2023-06-19T09:30:53;25.80;99.50
10678;DHT22;5387;48.722;9.110;2023-06-19T09:33:19;25.40;99.90
10678;DHT22;5387;48.722;9.110;2023-06-19T09:35:47;25.60;99.80
10678;DHT22;5387;48.722;9.110;2023-06-19T09:38:17;25.40;99.90
10678;DHT22;5387;48.722;9.110;2023-06-19T09:40:46;25.30;99.60
10678;DHT22;5387;48.722;9.110;2023-06-19T09:43:18;25.40;99.50
10678;DHT22;5387;48.722;9.110;2023-06-19T09:45:48;25.20;99.60
10678;DHT22;5387;48.722;9.110;2023-06-19T09:48:19;25.50;99.90
10678;DHT22;5387;48.722;9.110;2023-06-19T09:50:50;25.80;99.90
10678;DHT22;5387;48.722;9.110;2023-06-19T09:53:18;25.60;99.90
10678;DHT22;5387;48.722;9.110;2023-06-19T09:55:47;26.00;99.90
10678;DHT22;5387;48.722;9.110;2023-06-19T09:58:15;26.40;99.90
10678;DHT22;5387;48.722;9.110;2023-06-19T10:00:43;26.60;99.60
10678;DHT22;5387;48.722;9.110;2023-06-19T10:03:15;26.70;99.70
10678;DHT22;5387;48.722;9.110;2023-06-19T10:05:42;26.90;99.80
10678;DHT22;5387;48.722;9.110;2023-06-19T10:08:09;27.10;98.70
10678;DHT22;5387;48.722;9.110;2023-06-19T10:10:36;27.30;98.60
10678;DHT22;5387;48.722;9.110;2023-06-19T10:13:15;27.50;97.50
10678;DHT22;5387;48.722;9.110;2023-06-19T10:15:42;27.70;96.70
10678;DHT22;5387;48.722;9.110;2023-06-19T10:18:13;27.40;97.50
10678;DHT22;5387;48.722;9.110;2023-06-19T10:20:41;27.30;97.00
10678;DHT22;5387;48.722;9.110;2023-06-19T10:23:11;27.30;97.10
10678;DHT22;5387;48.722;9.110;2023-06-19T10:25:40;27.40;97.10
10678;DHT22;5387;48.722;9.110;2023-06-19T10:28:21;27.00;97.10
10678;DHT22;5387;48.722;9.110;2023-06-19T10:30:54;26.80;97.30
10678;DHT22;5387;48.722;9.110;2023-06-19T10:33:22;26.80;97.00
10678;DHT22;5387;48.722;9.110;2023-06-19T10:35:49;26.80;97.00
10678;DHT22;5387;48.722;9.110;2023-06-19T10:38:17;26.60;97.00
10678;DHT22;5387;48.722;9.110;2023-06-19T10:40:44;26.70;97.00
10678;DHT22;5387;48.722;9.110;2023-06-19T10:43:11;27.00;96.80
10678;DHT22;5387;48.722;9.110;2023-06-19T10:45:39;27.10;96.10
10678;DHT22;5387;48.722;9.110;2023-06-19T10:48:06;27.30;95.90
10678;DHT22;5387;48.722;9.110;2023-06-19T10:50:37;27.90;95.70
10678;DHT22;5387;48.722;9.110;2023-06-19T10:53:08;28.30;95.20
10678;DHT22;5387;48.722;9.110;2023-06-19T10:55:35;28.30;94.60
10678;DHT22;5387;48.722;9.110;2023-06-19T10:58:01;28.40;94.60
10678;DHT22;5387;48.722;9.110;2023-06-19T11:00:30;28.40;95.60
10678;DHT22;5387;48.722;9.110;2023-06-19T11:02:58;27.60;95.90
10678;DHT22;5387;48.722;9.110;2023-06-19T11:05:26;27.20;96.90
10678;DHT22;5387;48.722;9.110;2023-06-19T11:07:55;27.20;97.10
10678;DHT22;5387;48.722;9.110;2023-06-19T11:10:23;27.20;97.00
10678;DHT22;5387;48.722;9.110;2023-06-19T11:12:52;27.20;97.30
10678;DHT22;5387;48.722;9.110;2023-06-19T11:15:20;27.10;97.30
10678;DHT22;5387;48.722;9.110;2023-06-19T11:17:54;27.00;97.40
10678;DHT22;5387;48.722;9.110;2023-06-19T11:20:22;26.80;97.70
10678;DHT22;5387;48.722;9.110;2023-06-19T11:22:54;27.30;97.30
10678;DHT22;5387;48.722;9.110;2023-06-19T11:25:22;27.90;96.70
10678;DHT22;5387;48.722;9.110;2023-06-19T11:27:49;28.60;96.50
10678;DHT22;5387;48.722;9.110;2023-06-19T11:30:18;29.30;96.20
10678;DHT22;5387;48.722;9.110;2023-06-19T11:32:46;29.70;94.50
10678;DHT22;5387;48.722;9.110;2023-06-19T11:35:16;29.20;94.50
10678;DHT22;5387;48.722;9.110;2023-06-19T11:37:44;29.30;94.80
10678;DHT22;5387;48.722;9.110;2023-06-19T11:40:11;29.80;94.00
10678;DHT22;5387;48.722;9.110;2023-06-19T11:42:48;30.40;93.30
10678;DHT22;5387;48.722;9.110;2023-06-19T11:45:15;30.80;92.80
10678;DHT22;5387;48.722;9.110;2023-06-19T11:47:44;31.40;92.20
10678;DHT22;5387;48.722;9.110;2023-06-19T11:50:11;31.80;92.00
10678;DHT22;5387;48.722;9.110;2023-06-19T11:52:38;31.70;90.80
10678;DHT22;5387;48.722;9.110;2023-06-19T11:55:07;31.40;90.10
10678;DHT22;5387;48.722;9.110;2023-06-19T11:57:34;30.80;90.80
10678;DHT22;5387;48.722;9.110;2023-06-19T12:00:02;30.50;91.20
10678;DHT22;5387;48.722;9.110;2023-06-19T12:02:32;30.70;91.20
10678;DHT22;5387;48.722;9.110;2023-06-19T12:04:59;31.30;89.90
10678;DHT22;5387;48.722;9.110;2023-06-19T12:07:26;31.50;89.40
10678;DHT22;5387;48.722;9.110;2023-06-19T12:09:52;31.60;88.70
10678;DHT22;5387;48.722;9.110;2023-06-19T12:12:20;32.20;88.00
10678;DHT22;5387;48.722;9.110;2023-06-19T12:14:47;33.90;85.80
10678;DHT22;5387;48.722;9.110;2023-06-19T12:17:14;35.70;80.80
10678;DHT22;5387;48.722;9.110;2023-06-19T12:19:41;36.50;77.90
10678;DHT22;5387;48.722;9.110;2023-06-19T12:22:07;36.30;75.60
10678;DHT22;5387;48.722;9.110;2023-06-19T12:24:34;36.20;75.60
10678;DHT22;5387;48.722;9.110;2023-06-19T12:27:01;36.90;73.70
10678;DHT22;5387;48.722;9.110;2023-06-19T12:29:29;38.00;70.40
10678;DHT22;5387;48.722;9.110;2023-06-19T12:32:00;37.70;69.30
10678;DHT22;5387;48.722;9.110;2023-06-19T12:34:27;38.10;68.20
10678;DHT22;5387;48.722;9.110;2023-06-19T12:36:54;38.00;68.20
10678;DHT22;5387;48.722;9.110;2023-06-19T12:39:22;36.00;70.80
10678;DHT22;5387;48.722;9.110;2023-06-19T12:41:50;35.30;71.80
10678;DHT22;5387;48.722;9.110;2023-06-19T12:44:17;35.80;74.50
10678;DHT22;5387;48.722;9.110;2023-06-19T12:46:45;34.50;71.70
10678;DHT22;5387;48.722;9.110;2023-06-19T12:49:12;33.70;73.20
10678;DHT22;5387;48.722;9.110;2023-06-19T12:51:39;33.40;74.20
10678;DHT22;5387;48.722;9.110;2023-06-19T12:54:05;33.60;74.70
10678;DHT22;5387;48.722;9.110;2023-06-19T12:56:32;33.00;74.40
10678;DHT22;5387;48.722;9.110;2023-06-19T12:58:59;33.10;77.10
10678;DHT22;5387;48.722;9.110;2023-06-19T13:01:26;32.70;74.50
10678;DHT22;5387;48.722;9.110;2023-06-19T13:03:54;32.50;75.10
10678;DHT22;5387;48.722;9.110;2023-06-19T13:06:21;32.20;75.70
10678;DHT22;5387;48.722;9.110;2023-06-19T13:08:47;31.80;76.30
10678;DHT22;5387;48.722;9.110;2023-06-19T13:11:14;31.40;79.20
10678;DHT22;5387;48.722;9.110;2023-06-19T13:13:41;31.10;80.00
10678;DHT22;5387;48.722;9.110;2023-06-19T13:16:08;30.90;79.30
10678;DHT22;5387;48.722;9.110;2023-06-19T13:18:35;30.90;79.60
10678;DHT22;5387;48.722;9.110;2023-06-19T13:21:04;30.90;78.10
10678;DHT22;5387;48.722;9.110;2023-06-19T13:23:30;31.10;78.90
10678;DHT22;5387;48.722;9.110;2023-06-19T13:25:57;30.70;78.20
10678;DHT22;5387;48.722;9.110;2023-06-19T13:28:24;30.80;79.20
10678;DHT22;5387;48.722;9.110;2023-06-19T13:30:51;31.40;78.20
10678;DHT22;5387;48.722;9.110;2023-06-19T13:33:18;31.80;77.80
10678;DHT22;5387;48.722;9.110;2023-06-19T13:35:44;31.50;77.10
10678;DHT22;5387;48.722;9.110;2023-06-19T13:38:13;31.80;77.10
10678;DHT22;5387;48.722;9.110;2023-06-19T13:40:41;32.30;75.50
10678;DHT22;5387;48.722;9.110;2023-06-19T13:43:08;32.90;75.20
10678;DHT22;5387;48.722;9.110;2023-06-19T13:45:35;33.10;73.80
10678;DHT22;5387;48.722;9.110;2023-06-19T13:48:04;32.70;74.10
10678;DHT22;5387;48.722;9.110;2023-06-19T13:50:31;32.60;73.90
10678;DHT22;5387;48.722;9.110;2023-06-19T13:52:58;32.60;76.30
10678;DHT22;5387;48.722;9.110;2023-06-19T13:55:26;32.40;75.20
10678;DHT22;5387;48.722;9.110;2023-06-19T13:57:53;31.80;77.70
10678;DHT22;5387;48.722;9.110;2023-06-19T14:00:20;31.60;80.30
10678;DHT22;5387;48.722;9.110;2023-06-19T14:02:47;31.70;78.50
10678;DHT22;5387;48.722;9.110;2023-06-19T14:05:14;31.30;78.30
10678;DHT22;5387;48.722;9.110;2023-06-19T14:07:42;31.20;78.00
10678;DHT22;5387;48.722;9.110;2023-06-19T14:10:09;31.50;77.90
10678;DHT22;5387;48.722;9.110;2023-06-19T14:12:37;31.50;75.30
10678;DHT22;5387;48.722;9.110;2023-06-19T14:15:06;31.80;77.00
10678;DHT22;5387;48.722;9.110;2023-06-19T14:17:33;32.00;76.60
10678;DHT22;5387;48.722;9.110;2023-06-19T14:20:00;32.20;75.50
10678;DHT22;5387;48.722;9.110;2023-06-19T14:22:30;32.10;77.40
10678;DHT22;5387;48.722;9.110;2023-06-19T14:24:56;31.80;74.30
10678;DHT22;5387;48.722;9.110;2023-06-19T14:27:25;31.20;74.60
10678;DHT22;5387;48.722;9.110;2023-06-19T14:29:55;30.90;77.40
10678;DHT22;5387;48.722;9.110;2023-06-19T14:32:22;31.10;76.10
10678;DHT22;5387;48.722;9.110;2023-06-19T14:34:49;31.10;76.20
10678;DHT22;5387;48.722;9.110;2023-06-19T14:37:16;31.50;74.90
10678;DHT22;5387;48.722;9.110;2023-06-19T14:39:43;31.70;76.60
10678;DHT22;5387;48.722;9.110;2023-06-19T14:42:10;31.70;74.60
10678;DHT22;5387;48.722;9.110;2023-06-19T14:44:36;31.90;76.10
10678;DHT22;5387;48.722;9.110;2023-06-19T14:47:05;31.50;77.50
10678;DHT22;5387;48.722;9.110;2023-06-19T14:49:32;31.80;76.70
10678;DHT22;5387;48.722;9.110;2023-06-19T14:51:59;31.50;75.20
10678;DHT22;5387;48.722;9.110;2023-06-19T14:54:26;31.00;74.90
10678;DHT22;5387;48.722;9.110;2023-06-19T14:56:53;30.90;77.00
10678;DHT22;5387;48.722;9.110;2023-06-19T14:59:19;31.00;79.00
10678;DHT22;5387;48.722;9.110;2023-06-19T15:01:46;30.50;75.40
10678;DHT22;5387;48.722;9.110;2023-06-19T15:04:15;30.70;74.30
10678;DHT22;5387;48.722;9.110;2023-06-19T15:06:41;31.00;75.10
10678;DHT22;5387;48.722;9.110;2023-06-19T15:09:08;31.30;78.60
10678;DHT22;5387;48.722;9.110;2023-06-19T15:11:35;31.50;76.20
10678;DHT22;5387;48.722;9.110;2023-06-19T15:14:02;31.30;75.90
10678;DHT22;5387;48.722;9.110;2023-06-19T15:16:29;30.90;76.00
10678;DHT22;5387;48.722;9.110;2023-06-19T15:18:56;30.60;76.00
10678;DHT22;5387;48.722;9.110;2023-06-19T15:21:24;30.80;78.20
10678;DHT22;5387;48.722;9.110;2023-06-19T15:23:53;30.80;76.50
10678;DHT22;5387;48.722;9.110;2023-06-19T15:26:20;30.70;75.80
10678;DHT22;5387;48.722;9.110;2023-06-19T15:28:47;30.40;77.00
10678;DHT22;5387;48.722;9.110;2023-06-19T15:31:14;30.30;78.30
10678;DHT22;5387;48.722;9.110;2023-06-19T15:33:42;30.50;76.90
10678;DHT22;5387;48.722;9.110;2023-06-19T15:36:08;30.30;76.60
10678;DHT22;5387;48.722;9.110;2023-06-19T15:38:38;30.40;80.40
10678;DHT22;5387;48.722;9.110;2023-06-19T15:41:05;30.40;79.00
10678;DHT22;5387;48.722;9.110;2023-06-19T15:43:32;30.30;77.30
10678;DHT22;5387;48.722;9.110;2023-06-19T15:45:59;30.50;77.20
10678;DHT22;5387;48.722;9.110;2023-06-19T15:48:25;30.90;76.70